Image
Image
Image
Image
Image
Image
Image
Image
Image
Image
Image
Image
Image
City Time Now High Low DP Feels RH% Vsby Pressure Ceiling Direction Speed Gust Precip
Algona
IFR
11:35AM 46° 48° 46° 46° 43° 100
%
2
mi
1007.1
mb
1300
ft
NNE 7
mph
0.16"
KAXA 281635Z AUTO 02006KT 2SM BR BKN013 08/08 A2974 RMK A01
Ankeny
MVFR
11:35AM 46° 50° 46° 45° 40° 93
%
4
mi
1004.4
mb
1300
ft
N 14
mph
0.47"
KIKV 281635Z AUTO 36012KT 4SM -RA FEW009 BKN013 08/07 A2966 RMK AO2
Atlantic
MVFR
11:35AM 48° 50° 48° 48° 41° 100
%
10
mi
1004.7
mb
1300
ft
N 21
mph
28
mph
0.57"
KAIO 281635Z AUTO 36018G24KT 10SM -RA OVC013 09/09 A2967 RMK AO2
Audubon
MVFR
11:35AM 48° 52° 48° 45° 41° 87
%
10
mi
1005.8
mb
1000
ft
N 22
mph
28
mph
0.56"
KADU 281635Z AUTO 35019G24KT 10SM -RA OVC010 09/07 A2970 RMK AO2 P0001
Ames
IFR
10:53AM 46° 49° 46° 43° 40° 89
%
5
mi
1003.7
mb
900
ft
N 13
mph
22
mph
0.75"
KAMW 281553Z AUTO 35011G19KT 5SM -RA BR BKN009 BKN055 OVC080 08/06 A2964 RMK AO2 SLP036 P0004 T00780061
Boone
IFR
11:35AM 46° 48° 45° 46° 41° 100
%
6
mi
1006.1
mb
700
ft
N 13
mph
18
mph
0.81"
KBNW 281635Z AUTO 01011G16KT 6SM BR BKN007 OVC044 08/08 A2971 RMK AO2
Burlington
IFR
10:53AM 47° 51° 46° 46° 40° 97
%
8
mi
999.7
mb
700
ft
🔹
NE 16
mph
0.19"
KBRL 281553Z AUTO 05014KT 8SM -RA OVC007 08/08 A2952 RMK AO2 CIG 005V010 SLP998 P0003 T00830078
Carroll
MVFR
11:35AM 48° 50° 46° 48° 42° 100
%
5
mi
1005.4
mb
1300
ft
N 18
mph
26
mph
0.48"
KCIN 281635Z AUTO 35016G23KT 5SM -RA SCT007 BKN013 09/09 A2969 RMK AO2
Cedar Rapids
MVFR
11:31AM 46° 48° 44° 45° 40° 96
%
3
mi
1002.4
mb
1000
ft
N 14
mph
0.20"
KCID 281631Z 01012KT 3SM -RA BR BKN010 BKN055 OVC070 08/07 A2960 RMK AO2 P0001 T00780072
Chariton
VFR
11:35AM 46° 48° 45° 45° 40° 93
%
7
mi
1002.7
mb
None N 15
mph
0.62"
KCNC 281635Z AUTO 01013KT 7SM -RA CLR 08/07 A2961 RMK AO2
Charles City
VFR
11:35AM 46° 48° 45° 46° 41° 100
%
6
mi
1005.8
mb
None N 10
mph
0.00"
KCCY 281635Z AUTO 35009KT 6SM -RA FEW060 08/08 A2970 RMK AO2
Clarinda
MVFR
11:35AM 50° 52° 50° 50° 50° 100
%
4
mi
1005.1
mb
1300
ft
N 16
mph
26
mph
0.00"
KICL 281635Z AUTO 01014G23KT 4SM -RA BKN013 10/10 A2968 RMK AO2
Clarion
IFR
11:35AM 45° 48° 45° 45° 39° 100
%
mi
1005.4
mb
None N 12
mph
0.57"
KCAV 281635Z AUTO 35010KT 2 1/2SM BR FEW006 SCT026 SCT033 07/07 A2969 RMK A01
Clinton
MVFR
10:56AM 48° 49° 46° 48° 44° 100
%
5
mi
1002.4
mb
1200
ft
ENE 9
mph
0.00"
KCWI 281556Z AUTO 06008KT 5SM -RA BR OVC012 09/09 A2960 RMK AO2 RAB01 SLP028 T00890089 PNO $
Council Bluffs
MVFR
11:35AM 48° 50° 46° 48° 41° 100
%
10
mi
1005.4
mb
1900
ft
NNW 20
mph
33
mph
0.29"
KCBF 281635Z AUTO 34017G29KT 10SM BKN019 OVC024 09/09 A2969 RMK AO2
Creston
MVFR
11:35AM 46° 50° 46° 46° 40° 100
%
4
mi
1004.1
mb
1300
ft
NNE 16
mph
23
mph
0.00"
KCSQ 281635Z AUTO 02014G20KT 4SM -RA SCT007 BKN013 SCT038 08/08 A2965 RMK AO2
Centerville
IFR
11:35AM 45° 48° 45° 45° 37° 100
%
10
mi
1002.0
mb
800
ft
N 16
mph
23
mph
0.28"
KTVK 281635Z AUTO 35014G20KT 10SM -RA BKN008 BKN012 07/07 A2959 RMK AO2
Cherokee
VFR
11:35AM 49° 49° 46° 47° 45° 91
%
10
mi
1008.5
mb
8000
ft
N 10
mph
0.20"
KCKP 281635Z AUTO 35009KT 10SM OVC080 10/08 A2978 RMK AO2 T00950081
Decorah
MVFR
11:35AM 48° 50° 45° 46° 45° 93
%
10
mi
1005.1
mb
1500
ft
NNE 8
mph
0.00"
KDEH 281635Z AUTO 02007KT 10SM OVC015 09/08 A2968 RMK AO2
Denison
MVFR
11:35AM 48° 48° 46° 48° 42° 100
%
7
mi
1007.5
mb
1300
ft
N 15
mph
23
mph
0.50"
KDNS 281635Z AUTO 36013G20KT 7SM -RA BKN013 BKN019 09/09 A2975 RMK AO2
Des Moines
IFR
10:54AM 46° 49° 46° 44° 40° 93
%
8
mi
1004.4
mb
🔺
900
ft
🔹
NNE 13
mph
0.81"
KDSM 281554Z 03011KT 8SM -RA OVC009 08/07 A2966 RMK AO2 CIG 005V012 PRESRR SLP047 P0005 T00780067
Dubuque
LIFR
11:32AM 47° 49° 45° 46° 43° 97
%
1
mi
🛫
1003.4
mb
200
ft
N 8
mph
0.04"
KDBQ 281632Z 01007KT 1SM R36/5000V6000FT RA BR OVC002 08/08 A2963 RMK AO2 RAB1554E07B14 P0003 T00830078
Estherville
MVFR
11:24AM 48° 48° 47° 47° 42° 96
%
9
mi
1007.8
mb
1000
ft
N 15
mph
0.52"
KEST 281624Z AUTO 36013KT 9SM -RA BKN010 BKN016 OVC049 09/08 A2976 RMK AO2 P0001 T00890083
Fairfield
IFR
11:35AM 46° 52° 45° 46° 40° 100
%
4
mi
1001.0
mb
800
ft
NNE 14
mph
21
mph
0.36"
KFFL 281635Z AUTO 03012G18KT 4SM BR BKN008 BKN013 08/08 A2956 RMK A01
Fort Dodge
IFR
10:56AM 45° 48° 45° 44° 42° 97
%
6
mi
1006.4
mb
600
ft
🔹
N 6
mph
0.27"
KFOD 281556Z AUTO 36005KT 6SM -RA BR OVC006 07/07 A2972 RMK AO2 CIG 005V011 SLPNO P0003 T00720067
Fort Madison 11:35AM 48° 52° 46° 48° 45° 100
%
7
mi
999.0
mb
NE 8
mph
0.17"
KFSW 281635Z AUTO 05007KT 7SM -RA 09/09 A2950 RMK AO2 P0001
Forest City
MVFR
11:35AM 45° 46° 43° 43° 42° 93
%
5
mi
1007.1
mb
2100
ft
N 5
mph
0.14"
KFXY 281635Z AUTO 36004KT 5SM -DZ SCT006 OVC021 07/06 A2974 RMK AO2
Grinnell
IFR
11:35AM 48° 51° 46° 46° 41° 94
%
4
mi
1003.4
mb
900
ft
N 15
mph
0.28"
KGGI 281635Z AUTO 36013KT 4SM RA SCT005 BKN009 OVC018 09/08 A2963 RMK AO2 P0001 T00860077
Harlan
VFR
11:35AM 48° 50° 46° 48° 42° 100
%
10
mi
1005.8
mb
None N 18
mph
26
mph
0.47"
KHNR 281635Z AUTO 36016G23KT 10SM FEW016 FEW045 09/09 A2970 RMK A01
Hampton
IFR
11:35AM 45° 46° 45° 43° 41° 93
%
5
mi
1005.8
mb
600
ft
N 7
mph
0.46"
KHPT 281635Z AUTO 01006KT 5SM -RA OVC006 07/06 A2970 RMK AO2 P0005
Independence
VFR
11:35AM 49° 52° 47° 48° 46° 98
%
5
mi
1005.4
mb
7500
ft
N 6
mph
0.00"
KIIB 281635Z AUTO 01005KT 5SM BR SCT008 SCT023 OVC075 09/09 A2969 RMK AO2 T00930090
Iowa City
MVFR
11:41AM 47° 51° 46° 43° 42° 86
%
4
mi
1002.4
mb
1000
ft
🔹
NNE 10
mph
21
mph
0.29"
KIOW 281641Z AUTO 03009G18KT 4SM RA BR BKN010 OVC080 08/06 A2960 RMK AO2 CIG 007V014 P0007 T00830061
Iowa Falls
IFR
11:35AM 46° 49° 45° 45° 43° 97
%
7
mi
1006.4
mb
600
ft
N 5
mph
0.28"
KIFA 281635Z AUTO 36004KT 7SM RA OVC006 08/07 A2972 RMK AO2 P0002 T00760072
Keokuk 11:35AM 48° 52° 46° 48° 45° 100
%
7
mi
998.6
mb
NNE 8
mph
15
mph
0.00"
KEOK 281635Z AUTO 03007G13KT 7SM 09/09 A2949 RMK AO2 PWINO
Knoxville
MVFR
11:35AM 46° 50° 46° 45° 40° 93
%
4
mi
1002.4
mb
None N 14
mph
21
mph
0.55"
KOXV 281635Z AUTO 36012G18KT 4SM -RA SCT006 SCT070 08/07 A2960 RMK AO2
Lamoni
MVFR
11:31AM 45° 50° 45° 43° 38° 93
%
10
mi
1002.7
mb
1600
ft
NNE 16
mph
29
mph
0.81"
KLWD 281631Z AUTO 02014G25KT 10SM -RA FEW009 BKN016 OVC041 07/06 A2961 RMK AO2 P0003 T00720061
Le Mars
VFR
11:35AM 50° 50° 46° 46° 50° 87
%
10
mi
1009.1
mb
None NNW 15
mph
0.07"
KLRJ 281635Z AUTO 33013KT 10SM FEW017 10/08 A2980 RMK AO2
Marshalltown
VFR
11:00AM 45° 48° 45° 43° 40° 93
%
5
mi
1004.7
mb
🔺
7000
ft
N 9
mph
0.44"
KMIW 281600Z AUTO 01008KT 5SM -RA BR FEW009 OVC070 07/06 A2967 RMK AO2 PRESRR P0000 T00720061
Mason City
MVFR
11:06AM 45° 47° 44° 42° 40° 89
%
6
mi
1006.8
mb
2500
ft
N 10
mph
0.44"
KMCW 281606Z AUTO 36009KT 6SM -RA BR FEW006 OVC025 07/06 A2973 RMK AO2 P0001 T00720056
Monticello
IFR
11:35AM 48° 50° 46° 48° 46° 100
%
2
mi
1003.0
mb
None N 6
mph
0.01"
KMXO 281635Z AUTO 36005KT 2SM -RA SCT013 09/09 A2962 RMK AO2
Mount Pleasant
IFR
11:35AM 46° 52° 46° 46° 39° 100
%
5
mi
999.7
mb
900
ft
NNE 17
mph
22
mph
0.13"
KMPZ 281635Z AUTO 03015G19KT 5SM -RA OVC009 08/08 A2952 RMK AO2 P0001
Muscatine
IFR
11:35AM 48° 52° 46° 48° 43° 100
%
mi
1001.7
mb
900
ft
NE 13
mph
0.00"
KMUT 281635Z AUTO 04011KT 2 1/2SM RA BKN009 BKN012 BKN060 09/09 A2958 RMK AO2
Newton
IFR
11:35AM 46° 50° 45° 46° 39° 100
%
mi
1003.0
mb
None N 18
mph
24
mph
0.46"
KTNU 281635Z AUTO 36016G21KT 2 1/2SM BR FEW007 08/08 A2962 RMK A01
Oelwein
MVFR
11:35AM 46° 50° 45° 45° 44° 93
%
9
mi
1006.1
mb
1300
ft
NE 5
mph
0.01"
KOLZ 281635Z AUTO 04004KT 9SM OVC013 08/07 A2971 RMK A01
Ottumwa
IFR
10:53AM 46° 50° 45° 45° 39° 96
%
5
mi
1001.0
mb
700
ft
🔹
NNE 16
mph
25
mph
0.34"
KOTM 281553Z AUTO 02014G22KT 5SM -RA BR OVC007 08/07 A2956 RMK AO2 CIG 006V011 SLP012 P0003 T00780072
Osceola
IFR
11:35AM 47° 50° 46° 46° 42° 97
%
10
mi
1003.7
mb
600
ft
N 9
mph
0.64"
KI75 281635Z AUTO 01008KT 10SM -RA OVC006 08/08 A2964 RMK AO2 P0001 T00810076
Oskaloosa
IFR
11:35AM 47° 52° 47° 46° 41° 97
%
5
mi
1002.4
mb
700
ft
NNE 16
mph
23
mph
0.06"
KOOA 281635Z AUTO 03014G20KT 5SM -RA OVC007 09/08 A2960 RMK AO2 P0001 T00850080
Pella 11:35AM 47° 51° 46° 46° 41° 97
%
5
mi
1003.4
mb
N 13
mph
16
mph
0.00"
KPEA 281635Z AUTO 01011G14KT 5SM RA 08/08 A2963 RMK AO2 T00820078
Perry 11:15AM 46° 50° 46° 46° 41° 100
%
7
mi
1004.4
mb
N 10
mph
0.47"
KPRO 281615Z AUTO 35009KT 7SM -RA 08/08 A2966 RMK AO2 T00800080
Quad Cities
MVFR
11:29AM 48° 49° 46° 46° 43° 93
%
3
mi
1002.0
mb
1300
ft
NNE 12
mph
0.14"
KDVN 281629Z AUTO 03010KT 3SM -RA BR SCT008 BKN013 OVC030 09/08 A2959 RMK AO2 P0004 T00890078
Red Oak
MVFR
11:35AM 50° 52° 48° 48° 50° 93
%
10
mi
1005.1
mb
1700
ft
N 23
mph
37
mph
0.49"
KRDK 281635Z AUTO 36020G32KT 10SM BKN017 OVC047 10/09 A2968 RMK AO2
Sheldon
VFR
11:35AM 50° 50° 46° 46° 50° 87
%
10
mi
1008.8
mb
None NNW 15
mph
0.01"
KSHL 281635Z AUTO 34013KT 10SM FEW110 10/08 A2979 RMK AO2
Shenandoah
VFR
11:35AM 48° 52° 48° 48° 42° 100
%
7
mi
1004.7
mb
None N 17
mph
25
mph
0.00"
KSDA 281635Z AUTO 36015G22KT 330V030 7SM -RA FEW016 SCT050 09/09 A2967 RMK AO2
Sioux City
VFR
10:52AM 49° 50° 46° 44° 43° 83
%
10
mi
1009.5
mb
None NNW 17
mph
0.10"
KSUX 281552Z 33015KT 10SM FEW017 SCT021 09/07 A2981 RMK AO2 SLP098 T00940067
Spencer
VFR
10:53AM 48° 49° 48° 44° 42° 86
%
10
mi
1007.5
mb
5000
ft
N 14
mph
28
mph
0.45"
KSPW 281553Z AUTO 35012G24KT 10SM -RA OVC050 09/07 A2975 RMK AO2 SLP080 P0005 T00890067
Sioux County
VFR
11:35AM 50° 50° 46° 46° 50° 87
%
10
mi
1009.1
mb
None NNW 16
mph
0.10"
KSXK 281635Z AUTO 34014KT 10SM FEW014 10/08 A2980 RMK AO2
Vinton
VFR
11:35AM 48° 52° 46° 48° 45° 100
%
5
mi
1005.1
mb
None N 7
mph
0.09"
KVTI 281635Z AUTO 35006KT 5SM BR CLR 09/09 A2968 RMK AO2 P0001 T00900090
Washington
MVFR
11:35AM 46° 52° 46° 46° 40° 100
%
3
mi
1000.7
mb
None NNE 16
mph
24
mph
0.02"
KAWG 281635Z AUTO 03014G21KT 3SM -RA SCT012 08/08 A2955 RMK AO2
Waterloo
VFR
10:54AM 47° 51° 46° 44° 41° 90
%
6
mi
1004.1
mb
7500
ft
N 13
mph
0.14"
KALO 281554Z 35011KT 6SM -RA BR SCT014 OVC075 08/07 A2965 RMK AO2 SLP044 P0002 T00830067
Webster City 11:35AM 45° 48° 45° 45° 39° 100
%
1005.8
mb
N 10
mph
0.65"
KEBS 281635Z AUTO 35009KT -RA 07/07 A2970 RMK AO2
Click here to show this page without METARs included